Time;durP1;ratioP1;P1;durP2;ratioP2;P2;SDS_P1;SDS_P2;PMS_P1;PMS_P2;Temp;Humidity;BMP_temperature;BMP_pressure;BME280_temperature;BME280_humidity;BME280_pressure;Samples;Min_cycle;Max_cycle;Signal;HPM_P1;HPM_P2
2023/07/10 00:03:58;;;;;;;6.60;5.90;;;;;;;18.29;92.26;100549.38;176850;1260;46021;-89
2023/07/10 00:08:01;;;;;;;7.10;6.40;;;;;;;18.26;92.26;100548.04;176994;1259;46092;-90
2023/07/10 00:12:10;;;;;;;8.90;6.90;;;;;;;18.28;92.46;100546.42;177454;1260;44718;-89
2023/07/10 00:16:19;;;;;;;7.40;6.00;;;;;;;18.28;92.57;100544.48;177085;1261;59863;-89
2023/07/10 00:20:26;;;;;;;10.00;5.50;;;;;;;18.28;92.40;100543.10;177313;1260;46018;-89
2023/07/10 00:24:30;;;;;;;7.00;5.80;;;;;;;18.20;92.39;100545.50;177156;1260;46095;-89
2023/07/10 00:28:33;;;;;;;12.10;5.40;;;;;;;18.14;92.58;100545.70;177293;1259;45930;-89
2023/07/10 00:32:36;;;;;;;7.20;5.80;;;;;;;18.13;93.29;100542.54;177425;1261;46045;-88
2023/07/10 00:36:41;;;;;;;7.50;6.00;;;;;;;18.15;94.14;100540.34;177597;1259;57901;-88
2023/07/10 00:40:46;;;;;;;9.90;7.60;;;;;;;18.17;94.29;100528.83;177263;1259;46155;-88
2023/07/10 00:44:56;;;;;;;11.80;7.30;;;;;;;18.12;94.80;100524.84;177111;1259;46003;-89
2023/07/10 00:49:11;;;;;;;8.50;6.80;;;;;;;18.06;96.59;100526.09;176975;1260;46364;-88
2023/07/10 00:53:29;;;;;;;9.10;6.90;;;;;;;17.88;97.37;100525.82;177141;1260;46194;-88
2023/07/10 00:57:36;;;;;;;13.30;8.80;;;;;;;17.74;99.01;100520.71;176946;1259;57093;-88
2023/07/10 01:02:15;;;;;;;9.10;7.30;;;;;;;17.65;99.94;100519.92;176785;1264;46121;-87
2023/07/10 01:06:26;;;;;;;8.70;7.30;;;;;;;17.62;100.00;100523.45;176636;1260;46448;-88
2023/07/10 01:10:30;;;;;;;10.70;8.70;;;;;;;17.57;100.00;100519.45;176992;1260;46007;-88
2023/07/10 01:14:34;;;;;;;29.20;7.10;;;;;;;17.52;100.00;100513.86;176748;1261;46155;-88
2023/07/10 01:18:40;;;;;;;8.50;7.60;;;;;;;17.58;100.00;100508.63;176876;1259;58744;-88
2023/07/10 01:22:43;;;;;;;11.20;7.80;;;;;;;17.64;100.00;100505.99;176973;1261;45966;-88
2023/07/10 01:26:46;;;;;;;11.60;7.50;;;;;;;17.68;100.00;100508.23;176848;1260;46137;-88
2023/07/10 01:30:53;;;;;;;9.10;7.50;;;;;;;17.68;100.00;100508.05;176866;1260;45985;-88
2023/07/10 01:35:02;;;;;;;8.80;7.80;;;;;;;17.65;100.00;100504.48;176880;1259;46010;-88
2023/07/10 01:39:15;;;;;;;10.10;7.40;;;;;;;17.68;99.56;100501.98;176868;1261;59446;-88
2023/07/10 01:43:18;;;;;;;9.70;7.70;;;;;;;17.76;98.48;100500.23;176954;1261;46076;-88
2023/07/10 01:47:21;;;;;;;8.70;6.70;;;;;;;17.74;97.78;100494.88;177060;1260;46574;-88
2023/07/10 01:51:25;;;;;;;8.60;6.00;;;;;;;17.66;98.08;100500.42;176709;1261;46086;-88
2023/07/10 01:55:31;;;;;;;7.50;6.70;;;;;;;17.61;98.44;100500.45;176892;1260;45988;-89
2023/07/10 01:59:35;;;;;;;9.90;7.80;;;;;;;17.64;98.57;100502.80;177090;1260;59593;-89
2023/07/10 02:03:38;;;;;;;8.50;6.50;;;;;;;17.62;97.82;100503.18;177179;1260;45969;-89
2023/07/10 02:07:41;;;;;;;9.50;7.90;;;;;;;17.64;97.80;100500.09;177270;1260;46093;-88
2023/07/10 02:11:44;;;;;;;8.70;7.80;;;;;;;17.67;98.10;100495.67;177052;1261;45996;-88
2023/07/10 02:15:48;;;;;;;18.00;9.10;;;;;;;17.62;99.12;100492.73;177012;1260;44313;-88
2023/07/10 02:19:51;;;;;;;8.90;6.80;;;;;;;17.51;98.72;100493.42;177060;1260;63138;-88
2023/07/10 02:23:56;;;;;;;11.00;8.60;;;;;;;17.46;98.38;100496.30;176654;1260;46082;-88
2023/07/10 02:27:59;;;;;;;7.90;7.30;;;;;;;17.37;98.97;100493.09;178277;1261;46132;-89
2023/07/10 02:32:03;;;;;;;8.90;8.00;;;;;;;17.27;98.85;100499.50;177341;1260;46012;-88
2023/07/10 02:36:07;;;;;;;11.30;7.00;;;;;;;17.22;98.99;100507.28;177831;1259;46138;-88
2023/07/10 02:40:10;;;;;;;11.70;8.00;;;;;;;17.26;99.03;100505.05;177379;1261;59620;-88
2023/07/10 02:44:13;;;;;;;8.90;7.40;;;;;;;17.33;98.30;100501.67;177630;1261;45763;-87
2023/07/10 02:48:17;;;;;;;11.50;7.20;;;;;;;17.32;97.34;100500.63;177484;1260;45004;-87
2023/07/10 02:52:20;;;;;;;10.50;7.70;;;;;;;17.28;97.33;100501.88;177409;1261;45995;-88
2023/07/10 02:56:23;;;;;;;15.40;8.80;;;;;;;17.27;97.43;100503.42;177395;1259;45978;-88
2023/07/10 03:00:27;;;;;;;9.20;7.80;;;;;;;17.30;97.58;100506.36;177225;1260;60059;-89
2023/07/10 03:04:30;;;;;;;7.80;7.10;;;;;;;17.29;97.40;100500.08;177034;1260;46104;-88
2023/07/10 03:08:33;;;;;;;13.00;10.00;;;;;;;17.13;99.58;100494.19;176985;1261;45991;-88
2023/07/10 03:12:36;;;;;;;13.80;10.10;;;;;;;17.09;100.00;100497.99;176998;1260;46085;-88
2023/07/10 03:16:40;;;;;;;11.80;7.20;;;;;;;17.14;100.00;100494.46;177094;1261;46016;-88
2023/07/10 03:20:43;;;;;;;14.00;7.80;;;;;;;17.11;100.00;100497.71;177093;1260;59570;-88
2023/07/10 03:24:46;;;;;;;12.60;7.80;;;;;;;17.08;100.00;100497.93;176989;1260;46096;-86
2023/07/10 03:29:03;;;;;;;14.00;10.70;;;;;;;17.06;100.00;100502.83;177620;1260;46007;-90
2023/07/10 03:33:07;;;;;;;11.40;9.00;;;;;;;17.17;100.00;100495.08;178872;1260;46155;-89
2023/07/10 03:37:10;;;;;;;12.90;9.30;;;;;;;17.31;100.00;100490.94;178775;1261;46014;-90
2023/07/10 03:41:14;;;;;;;14.20;10.60;;;;;;;17.41;99.10;100489.07;178931;1260;60805;-89
2023/07/10 03:45:18;;;;;;;21.40;10.90;;;;;;;17.49;98.68;100481.08;179022;1260;46117;-88
2023/07/10 03:49:21;;;;;;;10.80;8.00;;;;;;;17.55;98.49;100480.08;178967;1260;44439;-89
2023/07/10 03:53:27;;;;;;;11.40;10.30;;;;;;;17.53;99.14;100482.77;178915;1259;46455;-90
2023/07/10 03:57:31;;;;;;;;;;;;;;;17.47;100.00;100493.08;178758;1260;44798;-89
2023/07/10 04:01:34;;;;;;;10.50;9.40;;;;;;;17.65;100.00;100497.93;178854;1260;59677;-89
2023/07/10 04:05:38;;;;;;;12.40;9.90;;;;;;;17.87;100.00;100493.05;177526;1260;46073;-90
2023/07/10 04:09:41;;;;;;;19.10;13.30;;;;;;;18.14;99.82;100476.88;178683;1260;46107;-89
2023/07/10 04:14:06;;;;;;;16.40;13.10;;;;;;;18.47;97.33;100477.73;179111;1260;46162;-90
2023/07/10 04:18:11;;;;;;;;;;;;;;;18.85;96.58;100477.85;178918;1261;44927;-88
2023/07/10 04:22:14;;;;;;;23.60;14.70;;;;;;;19.29;95.16;100475.37;177452;1260;57999;-88
2023/07/10 04:26:22;;;;;;;23.20;13.90;;;;;;;19.86;94.20;100471.13;177315;1260;45991;-88
2023/07/10 04:30:25;;;;;;;23.30;13.40;;;;;;;20.56;91.95;100474.47;177494;1260;46575;-87
2023/07/10 04:34:28;;;;;;;16.00;10.90;;;;;;;21.34;90.48;100469.70;177569;1260;46044;-88
2023/07/10 04:38:31;;;;;;;17.10;12.20;;;;;;;21.89;84.83;100468.45;177570;1260;45991;-88
2023/07/10 04:42:35;;;;;;;18.60;12.20;;;;;;;22.05;83.25;100472.90;177658;1261;59608;-88
2023/07/10 04:46:38;;;;;;;13.00;9.90;;;;;;;22.00;83.99;100469.33;177660;1260;46037;-89
2023/07/10 04:50:48;;;;;;;14.80;12.30;;;;;;;21.88;84.60;100469.23;177464;1262;46091;-89
2023/07/10 04:54:51;;;;;;;15.40;12.20;;;;;;;21.89;83.85;100471.66;177981;1260;46146;-89
2023/07/10 04:58:58;;;;;;;12.20;10.90;;;;;;;21.77;86.24;100472.85;179393;1260;45242;-88
2023/07/10 05:03:02;;;;;;;19.50;13.00;;;;;;;21.65;86.17;100477.98;178275;1260;57196;-88
2023/07/10 05:07:06;;;;;;;18.40;12.20;;;;;;;21.70;87.09;100489.03;177073;1261;46111;-88
2023/07/10 05:11:09;;;;;;;18.80;12.90;;;;;;;21.76;87.69;100501.95;177840;1260;46111;-88
2023/07/10 05:15:12;;;;;;;15.60;13.90;;;;;;;21.67;85.85;100479.54;178149;1260;44433;-89
2023/07/10 05:19:16;;;;;;;18.60;13.70;;;;;;;21.56;87.31;100482.63;178133;1260;46131;-89
2023/07/10 05:23:20;;;;;;;15.40;11.40;;;;;;;21.28;89.40;100493.59;178016;1259;58799;-89
2023/07/10 05:27:23;;;;;;;15.10;10.60;;;;;;;20.96;90.60;100491.23;177089;1259;45963;-89
2023/07/10 05:31:26;;;;;;;10.70;9.00;;;;;;;20.78;91.29;100496.17;177257;1261;46112;-88
2023/07/10 05:35:29;;;;;;;13.20;9.70;;;;;;;20.65;92.36;100489.20;177357;1261;45977;-89
2023/07/10 05:39:32;;;;;;;19.30;12.50;;;;;;;20.69;91.16;100474.11;177790;1260;46026;-89
2023/07/10 05:43:38;;;;;;;64.40;20.90;;;;;;;20.80;90.92;100465.95;177424;1259;60026;-89
2023/07/10 05:47:41;;;;;;;17.20;11.20;;;;;;;20.92;92.10;100453.95;177810;1260;46123;-89
2023/07/10 05:51:44;;;;;;;13.50;11.20;;;;;;;20.96;90.11;100439.73;177507;1259;45980;-89
2023/07/10 05:55:53;;;;;;;13.50;10.70;;;;;;;20.97;89.65;100453.94;177936;1260;46075;-89
2023/07/10 05:59:56;;;;;;;13.60;10.00;;;;;;;21.02;89.73;100478.11;177796;1260;46209;-89
2023/07/10 06:03:59;;;;;;;22.50;11.60;;;;;;;20.97;90.97;100489.49;177811;1260;59040;-89
2023/07/10 06:08:03;;;;;;;15.20;9.70;;;;;;;20.99;92.21;100479.91;177363;1260;46248;-89
2023/07/10 06:12:07;;;;;;;13.60;10.40;;;;;;;21.07;93.44;100496.73;177408;1261;44391;-89
2023/07/10 06:16:11;;;;;;;13.00;10.70;;;;;;;21.17;93.82;100500.79;177367;1260;46182;-89
2023/07/10 06:20:15;;;;;;;15.40;11.30;;;;;;;21.35;94.19;100496.02;177680;1260;46094;-88
2023/07/10 06:24:18;;;;;;;12.40;9.70;;;;;;;21.62;93.96;100485.70;177468;1260;59513;-89
2023/07/10 06:28:22;;;;;;;12.50;9.90;;;;;;;21.88;92.16;100482.44;178071;1263;45991;-88
2023/07/10 06:32:25;;;;;;;11.50;9.50;;;;;;;22.10;90.42;100474.71;177590;1260;44079;-89
2023/07/10 06:36:29;;;;;;;15.10;11.10;;;;;;;22.37;88.58;100470.27;177357;1259;46166;-89
2023/07/10 06:40:32;;;;;;;11.50;9.90;;;;;;;22.66;87.81;100468.32;177478;1260;44089;-89
2023/07/10 06:44:36;;;;;;;13.10;10.30;;;;;;;22.93;86.01;100462.09;177320;1264;59707;-89
2023/07/10 06:48:39;;;;;;;19.50;11.80;;;;;;;23.32;83.82;100466.21;177602;1261;46078;-89
2023/07/10 06:52:44;;;;;;;24.00;12.30;;;;;;;23.92;81.50;100451.34;177463;1260;46023;-89
2023/07/10 06:56:47;;;;;;;12.80;9.30;;;;;;;24.59;78.11;100448.71;177927;1261;46046;-89
2023/07/10 07:00:54;;;;;;;12.40;9.20;;;;;;;25.13;75.77;100442.11;177387;1263;46412;-89
2023/07/10 07:04:58;;;;;;;12.60;10.60;;;;;;;25.57;74.13;100440.27;177880;1260;59340;-89
2023/07/10 07:09:01;;;;;;;16.70;10.60;;;;;;;25.90;71.69;100433.54;177313;1260;46121;-89
2023/07/10 07:13:04;;;;;;;22.10;14.60;;;;;;;26.13;69.07;100434.54;178053;1260;45981;-89
2023/07/10 07:17:07;;;;;;;11.70;9.00;;;;;;;26.31;68.19;100433.52;177939;1263;46070;-89
2023/07/10 07:21:13;;;;;;;20.20;11.10;;;;;;;26.41;68.07;100433.08;178003;1262;226680;-89
2023/07/10 07:25:18;;;;;;;14.50;10.40;;;;;;;26.45;69.47;100438.98;178145;1259;58279;-89
2023/07/10 07:29:21;;;;;;;21.00;9.10;;;;;;;26.49;69.00;100438.71;178343;1259;45975;-89
2023/07/10 07:33:25;;;;;;;9.90;8.50;;;;;;;26.55;67.11;100429.71;179446;1265;45417;-84
2023/07/10 07:37:29;;;;;;;14.20;8.80;;;;;;;26.69;68.62;100433.54;179319;1261;45984;-85
2023/07/10 07:41:32;;;;;;;12.70;9.60;;;;;;;26.99;67.46;100434.17;179239;1260;44646;-85
2023/07/10 07:45:36;;;;;;;11.00;7.70;;;;;;;27.34;63.70;100430.92;179586;1260;58224;-85
2023/07/10 07:49:41;;;;;;;11.80;7.50;;;;;;;27.53;62.04;100426.60;179201;1260;46026;-90
2023/07/10 07:53:45;;;;;;;7.80;5.30;;;;;;;27.60;64.11;100437.05;178415;1260;47862;-87
2023/07/10 07:57:48;;;;;;;27.80;12.00;;;;;;;27.60;60.28;100445.84;178143;1261;45968;-89
2023/07/10 08:01:52;;;;;;;8.40;6.60;;;;;;;27.42;60.72;100448.45;177690;1260;46076;-88
2023/07/10 08:05:56;;;;;;;8.00;6.10;;;;;;;27.32;62.10;100445.77;178404;1260;59529;-89
2023/07/10 08:09:59;;;;;;;22.20;8.10;;;;;;;27.28;62.82;100443.66;178247;1260;46113;-88
2023/07/10 08:14:03;;;;;;;12.10;6.70;;;;;;;27.33;65.85;100434.67;178149;1260;45879;-89
2023/07/10 08:18:07;;;;;;;9.80;6.70;;;;;;;27.44;64.98;100417.77;178097;1261;44573;-89
2023/07/10 08:22:10;;;;;;;12.50;10.00;;;;;;;27.55;64.08;100408.58;178292;1261;44813;-89
2023/07/10 08:26:14;;;;;;;9.20;6.70;;;;;;;27.57;63.33;100423.82;178587;1262;58667;-89
2023/07/10 08:30:17;;;;;;;10.50;6.70;;;;;;;27.25;64.34;100453.70;178140;1262;45999;-89
2023/07/10 08:34:22;;;;;;;7.70;6.70;;;;;;;26.54;66.89;100510.16;177839;1260;45966;-89
2023/07/10 08:38:25;;;;;;;8.80;7.30;;;;;;;25.90;70.67;100546.54;177963;1260;45997;-89
2023/07/10 08:42:34;;;;;;;16.50;7.20;;;;;;;25.22;75.55;100578.52;177853;1261;46002;-88
2023/07/10 08:46:38;;;;;;;9.50;6.90;;;;;;;24.85;77.56;100589.52;177850;1260;60212;-89
2023/07/10 08:50:43;;;;;;;11.30;8.30;;;;;;;24.65;77.60;100584.36;177666;1264;46030;-89
2023/07/10 08:54:48;;;;;;;15.50;9.30;;;;;;;24.44;78.85;100579.70;178214;1259;46078;-89
2023/07/10 08:58:59;;;;;;;18.30;10.10;;;;;;;24.40;79.09;100552.95;177722;1259;46095;-88
2023/07/10 09:03:28;;;;;;;16.50;10.60;;;;;;;24.34;80.29;100544.86;177849;1261;45892;-89
2023/07/10 09:07:39;;;;;;;18.30;9.60;;;;;;;24.36;81.77;100538.27;177941;1260;60698;-89
2023/07/10 09:11:43;;;;;;;13.10;10.40;;;;;;;24.36;80.62;100514.65;178270;1260;45982;-88
2023/07/10 09:15:52;;;;;;;17.90;11.00;;;;;;;24.37;83.44;100489.89;177923;1260;46105;-88
2023/07/10 09:20:01;;;;;;;17.00;10.30;;;;;;;24.27;83.75;100473.02;177501;1261;46077;-87
2023/07/10 09:24:05;;;;;;;11.40;8.20;;;;;;;24.20;84.58;100472.23;178042;1260;45956;-87
2023/07/10 09:28:09;;;;;;;12.50;9.80;;;;;;;24.21;87.00;100484.63;177710;1259;57406;-88
2023/07/10 09:32:16;;;;;;;15.70;10.50;;;;;;;24.28;87.44;100478.48;177413;1261;46070;-88
2023/07/10 09:36:21;;;;;;;12.20;10.70;;;;;;;24.33;88.82;100452.80;177489;1260;45976;-88
2023/07/10 09:40:34;;;;;;;12.60;9.30;;;;;;;24.30;92.51;100416.55;177716;1259;46036;-88
2023/07/10 09:44:44;;;;;;;10.40;8.40;;;;;;;24.26;91.10;100367.02;178010;1260;46072;-89
2023/07/10 09:48:52;;;;;;;12.70;9.50;;;;;;;24.24;89.58;100384.64;178123;1262;59268;-89
2023/07/10 09:52:56;;;;;;;15.60;10.70;;;;;;;24.36;93.77;100408.89;177864;1259;45983;-89
2023/07/10 09:57:04;;;;;;;12.20;7.90;;;;;;;24.55;89.74;100402.29;177703;1260;46097;-89
2023/07/10 10:01:07;;;;;;;13.30;9.20;;;;;;;24.90;93.37;100411.27;177164;1259;45998;-88
2023/07/10 10:05:11;;;;;;;13.70;9.60;;;;;;;25.26;90.59;100402.11;177264;1264;46057;-88
2023/07/10 10:09:20;;;;;;;19.20;9.90;;;;;;;25.61;86.95;100405.27;178362;1261;59555;-89
2023/07/10 10:13:29;;;;;;;24.10;10.50;;;;;;;25.97;86.15;100408.90;177601;1261;46187;-88
2023/07/10 10:17:41;;;;;;;15.80;8.10;;;;;;;26.27;82.13;100407.92;178111;1260;45973;-88
2023/07/10 10:21:44;;;;;;;10.40;8.40;;;;;;;26.50;80.84;100415.35;177965;1260;46563;-89
2023/07/10 10:25:51;;;;;;;10.40;7.50;;;;;;;26.71;78.12;100409.99;177466;1260;46033;-88
2023/07/10 10:30:30;;;;;;;22.60;9.50;;;;;;;26.99;77.43;100404.81;177549;1260;59558;-88
2023/07/10 10:34:50;;;;;;;14.60;9.10;;;;;;;27.53;78.28;100399.88;177741;1264;46214;-89
2023/07/10 10:38:58;;;;;;;10.60;7.80;;;;;;;27.86;74.55;100387.98;177880;1263;46133;-88
2023/07/10 10:43:26;;;;;;;10.90;8.00;;;;;;;28.20;72.31;100376.21;178274;1259;46103;-88
2023/07/10 10:47:48;;;;;;;9.10;7.40;;;;;;;28.44;69.41;100369.09;178502;1260;45991;-89
2023/07/10 10:52:33;;;;;;;11.20;7.40;;;;;;;28.62;69.15;100361.13;178871;1260;58308;-89
2023/07/10 10:56:55;;;;;;;23.30;9.30;;;;;;;28.84;68.74;100353.51;178197;1268;46078;-90
2023/07/10 11:01:02;;;;;;;8.80;6.90;;;;;;;29.10;68.38;100338.98;177851;1265;44099;-89
2023/07/10 11:05:19;;;;;;;6.90;6.00;;;;;;;29.26;64.39;100329.83;177823;1267;44170;-87
2023/07/10 11:09:25;;;;;;;9.70;5.60;;;;;;;29.37;62.88;100317.63;177624;1267;45203;-89
2023/07/10 11:13:35;;;;;;;8.30;5.50;;;;;;;29.60;62.66;100306.14;177733;1269;57133;-89
2023/07/10 11:17:41;;;;;;;8.30;6.90;;;;;;;29.93;61.28;100290.35;177778;1267;45979;-89
2023/07/10 11:21:44;;;;;;;6.20;4.40;;;;;;;30.19;61.74;100289.48;177823;1266;45978;-89
2023/07/10 11:26:15;;;;;;;4.40;3.80;;;;;;;30.47;60.37;100283.55;177795;1267;46085;-89
2023/07/10 11:30:31;;;;;;;5.20;4.60;;;;;;;30.57;61.27;100279.48;178560;1261;44162;-90
2023/07/10 11:34:48;;;;;;;10.20;4.60;;;;;;;30.62;61.05;100265.00;178524;1259;59692;-89
2023/07/10 11:39:09;;;;;;;5.80;4.60;;;;;;;30.63;62.48;100265.17;178988;1261;44770;-90
2023/07/10 11:43:37;;;;;;;6.60;4.90;;;;;;;30.47;61.70;100269.00;178860;1261;46122;-89
2023/07/10 11:47:46;;;;;;;5.80;3.90;;;;;;;30.28;61.41;100283.59;178894;1260;45933;-89
2023/07/10 11:52:15;;;;;;;7.20;3.50;;;;;;;30.06;60.98;100297.75;179000;1261;45647;-89
2023/07/10 11:56:18;;;;;;;4.90;4.30;;;;;;;29.78;62.14;100323.59;178451;1260;57935;-88
2023/07/10 12:00:26;;;;;;;8.60;3.80;;;;;;;29.61;61.95;100366.89;178572;1261;46282;-89
2023/07/10 12:04:30;;;;;;;6.60;4.20;;;;;;;29.32;66.86;100365.77;178797;1258;44366;-87
2023/07/10 12:08:39;;;;;;;12.40;3.60;;;;;;;28.87;71.04;100341.16;178199;1263;45978;-86
2023/07/10 12:12:42;;;;;;;6.90;4.80;;;;;;;28.35;78.74;100310.33;178404;1261;45990;-86
2023/07/10 12:16:52;;;;;;;10.20;4.40;;;;;;;27.85;78.58;100251.87;178021;1262;58586;-86
2023/07/10 12:21:23;;;;;;;6.60;4.10;;;;;;;27.38;81.47;100216.70;178468;1259;45939;-86
2023/07/10 12:25:26;;;;;;;6.60;4.40;;;;;;;27.21;82.59;100230.80;178481;1262;46052;-87
2023/07/10 12:29:30;;;;;;;7.20;4.60;;;;;;;27.14;90.27;100249.58;177843;1260;45964;-87
2023/07/10 12:33:39;;;;;;;4.80;4.30;;;;;;;27.09;90.31;100238.39;178087;1259;46110;-86
2023/07/10 12:37:48;;;;;;;4.70;3.80;;;;;;;27.00;89.85;100234.80;178205;1264;59275;-88
2023/07/10 12:41:54;;;;;;;6.90;4.90;;;;;;;27.09;91.72;100236.27;177981;1259;46487;-87
2023/07/10 12:46:01;;;;;;;7.30;4.40;;;;;;;27.33;90.12;100242.86;178361;1262;46006;-85
2023/07/10 12:50:06;;;;;;;4.20;3.40;;;;;;;27.71;86.04;100242.61;178743;1261;46023;-86
2023/07/10 12:54:25;;;;;;;7.80;5.00;;;;;;;28.05;81.40;100245.65;178775;1260;45258;-86
2023/07/10 12:58:28;;;;;;;8.30;2.90;;;;;;;28.34;82.97;100238.88;178602;1264;59345;-86
2023/07/10 13:02:44;;;;;;;6.70;4.00;;;;;;;28.57;82.45;100225.27;178385;1260;46037;-85
2023/07/10 13:07:03;;;;;;;7.40;3.20;;;;;;;28.72;79.07;100222.08;178021;1259;46034;-86
2023/07/10 13:11:27;;;;;;;5.60;3.50;;;;;;;28.84;76.47;100226.94;177975;1262;46103;-86
2023/07/10 13:15:45;;;;;;;6.10;4.00;;;;;;;28.86;77.90;100230.54;178934;1259;46046;-85
2023/07/10 13:19:50;;;;;;;7.70;4.90;;;;;;;28.79;75.46;100227.17;178546;1260;60509;-85
2023/07/10 13:24:10;;;;;;;5.60;3.70;;;;;;;28.64;75.67;100233.53;178975;1261;44851;-86
2023/07/10 13:28:18;;;;;;;4.90;3.30;;;;;;;28.59;79.49;100255.95;178507;1264;46102;-86
2023/07/10 13:32:22;;;;;;;6.10;4.30;;;;;;;28.67;80.01;100253.40;178470;1262;47409;-85
2023/07/10 13:36:27;;;;;;;5.30;3.60;;;;;;;28.76;77.43;100252.63;178488;1260;46109;-86
2023/07/10 13:40:30;;;;;;;7.00;3.80;;;;;;;28.91;77.05;100260.60;179039;1261;59391;-86
2023/07/10 13:44:38;;;;;;;4.60;3.80;;;;;;;28.99;74.52;100272.72;178442;1264;46103;-86
2023/07/10 13:48:42;;;;;;;10.80;4.70;;;;;;;29.02;75.15;100270.27;180031;1259;44828;-83
2023/07/10 13:52:47;;;;;;;6.20;3.40;;;;;;;28.99;73.32;100269.98;180119;1259;43934;-85
2023/07/10 13:56:51;;;;;;;18.40;6.40;;;;;;;28.94;73.94;100259.29;179972;1261;44566;-84
2023/07/10 14:00:56;;;;;;;5.90;4.80;;;;;;;28.79;73.58;100249.14;180090;1260;59611;-85
2023/07/10 14:05:08;;;;;;;8.90;4.40;;;;;;;28.69;75.40;100260.22;179556;1262;46245;-85
2023/07/10 14:09:17;;;;;;;4.90;3.80;;;;;;;28.75;79.62;100271.84;179766;1260;44174;-86
2023/07/10 14:13:21;;;;;;;6.70;4.90;;;;;;;28.93;77.93;100269.40;179881;1260;46062;-86
2023/07/10 14:17:34;;;;;;;8.50;3.70;;;;;;;29.21;75.27;100260.46;179781;1260;45994;-86
2023/07/10 14:21:38;;;;;;;11.00;4.40;;;;;;;29.44;71.04;100240.42;179601;1261;58768;-87
2023/07/10 14:25:42;;;;;;;4.30;3.30;;;;;;;29.71;68.47;100219.89;180144;1260;43691;-86
2023/07/10 14:29:47;;;;;;;3.40;3.00;;;;;;;29.89;62.10;100208.91;179816;1261;46156;-86
2023/07/10 14:33:51;;;;;;;5.50;3.50;;;;;;;30.03;59.50;100195.26;179999;1260;45014;-86
2023/07/10 14:37:54;;;;;;;7.30;4.50;;;;;;;30.19;58.12;100188.31;179704;1260;46071;-86
2023/07/10 14:41:58;;;;;;;14.50;4.50;;;;;;;30.34;60.00;100185.88;179558;1260;60326;-86
2023/07/10 14:46:02;;;;;;;8.40;4.40;;;;;;;30.48;60.29;100179.46;180000;1260;44621;-86
2023/07/10 14:50:11;;;;;;;7.50;4.80;;;;;;;30.64;59.88;100172.58;179658;1264;44893;-87
2023/07/10 14:54:15;;;;;;;5.80;5.20;;;;;;;30.86;61.40;100166.88;179672;1260;46212;-87
2023/07/10 14:58:25;;;;;;;8.40;5.30;;;;;;;30.80;59.87;100165.61;179646;1262;46004;-87
2023/07/10 15:02:30;;;;;;;7.50;5.50;;;;;;;30.77;62.47;100172.85;179887;1260;60116;-87
2023/07/10 15:06:40;;;;;;;5.90;3.80;;;;;;;30.80;63.36;100179.45;179672;1262;46136;-87
2023/07/10 15:10:44;;;;;;;7.60;4.30;;;;;;;30.68;64.22;100174.54;179834;1261;45994;-85
2023/07/10 15:14:48;;;;;;;6.70;4.80;;;;;;;30.66;65.12;100176.50;179676;1261;44633;-86
2023/07/10 15:18:54;;;;;;;7.10;4.40;;;;;;;30.73;67.18;100168.26;180150;1261;45988;-87
2023/07/10 15:22:58;;;;;;;5.40;4.90;;;;;;;30.84;67.16;100162.89;179512;1261;59188;-86
2023/07/10 15:27:02;;;;;;;6.10;4.20;;;;;;;30.93;66.58;100160.38;179555;1260;44206;-86
2023/07/10 15:31:10;;;;;;;5.30;4.50;;;;;;;31.02;65.63;100144.27;179588;1261;44671;-86
2023/07/10 15:35:22;;;;;;;5.20;4.40;;;;;;;31.06;66.27;100130.73;179501;1260;44208;-86
2023/07/10 15:39:26;;;;;;;8.70;5.20;;;;;;;31.09;66.03;100129.86;179464;1261;45963;-86
2023/07/10 15:43:34;;;;;;;9.30;5.50;;;;;;;31.09;65.51;100131.73;179400;1262;58893;-85
2023/07/10 15:47:37;;;;;;;6.80;5.60;;;;;;;31.04;65.66;100121.23;179318;1262;46072;-86
2023/07/10 15:51:41;;;;;;;5.60;4.10;;;;;;;30.96;67.39;100118.20;179618;1260;45123;-86
2023/07/10 15:55:47;;;;;;;6.70;6.00;;;;;;;30.86;69.01;100113.77;179685;1261;46129;-86
2023/07/10 15:59:50;;;;;;;7.50;5.80;;;;;;;30.88;67.39;100115.59;179786;1260;45998;-86
2023/07/10 16:03:54;;;;;;;8.40;7.60;;;;;;;30.97;67.54;100111.02;179629;1261;58237;-86
2023/07/10 16:07:59;;;;;;;11.90;8.90;;;;;;;31.10;68.02;100105.14;179867;1261;46138;-86
2023/07/10 16:12:03;;;;;;;8.50;6.60;;;;;;;31.20;67.35;100108.83;179586;1264;45910;-86
2023/07/10 16:16:08;;;;;;;10.40;6.30;;;;;;;31.27;65.07;100107.12;179526;1260;45282;-86
2023/07/10 16:20:19;;;;;;;7.70;7.00;;;;;;;31.28;66.14;100110.09;179807;1261;45992;-85
2023/07/10 16:24:23;;;;;;;167.10;37.40;;;;;;;31.24;66.27;100112.48;179746;1260;58570;-85
2023/07/10 16:28:28;;;;;;;9.70;5.90;;;;;;;31.32;65.56;100104.61;179707;1261;45278;-85
2023/07/10 16:32:32;;;;;;;7.70;5.40;;;;;;;31.39;63.96;100101.05;179772;1261;44850;-84
2023/07/10 16:36:36;;;;;;;9.60;5.30;;;;;;;31.36;64.04;100096.77;179812;1260;46128;-85
2023/07/10 16:40:43;;;;;;;5.10;4.30;;;;;;;31.30;64.05;100092.95;180216;1261;43957;-85
2023/07/10 16:44:47;;;;;;;9.40;5.80;;;;;;;31.20;64.71;100088.44;179732;1261;58392;-86
2023/07/10 16:48:51;;;;;;;9.80;5.00;;;;;;;31.16;65.67;100080.13;179731;1260;44567;-85
2023/07/10 16:52:55;;;;;;;6.40;4.20;;;;;;;31.07;64.09;100075.86;179641;1260;46149;-86
2023/07/10 16:57:00;;;;;;;6.10;4.50;;;;;;;31.00;64.81;100076.88;179514;1261;46021;-85
2023/07/10 17:01:18;;;;;;;5.30;4.80;;;;;;;30.92;66.54;100073.55;179415;1263;46089;-85
2023/07/10 17:05:22;;;;;;;6.10;5.00;;;;;;;30.87;66.82;100072.21;179655;1264;58755;-85
2023/07/10 17:09:26;;;;;;;7.20;5.40;;;;;;;30.79;67.65;100075.52;179767;1262;46001;-84
2023/07/10 17:13:34;;;;;;;15.70;6.80;;;;;;;30.73;68.38;100079.15;179817;1262;45679;-86
2023/07/10 17:17:39;;;;;;;7.10;4.60;;;;;;;30.70;68.17;100067.29;179667;1260;44179;-87
2023/07/10 17:21:43;;;;;;;5.80;4.90;;;;;;;30.62;67.84;100070.57;179600;1260;46211;-87
2023/07/10 17:25:49;;;;;;;7.60;5.20;;;;;;;30.54;67.47;100075.94;179570;1263;59962;-87
2023/07/10 17:29:54;;;;;;;6.40;4.70;;;;;;;30.41;68.04;100073.83;179623;1260;43790;-87
2023/07/10 17:34:03;;;;;;;6.30;4.80;;;;;;;30.21;68.29;100079.33;179481;1260;44611;-87
2023/07/10 17:38:08;;;;;;;6.20;5.30;;;;;;;30.05;69.34;100085.39;180154;1260;44141;-86
2023/07/10 17:42:24;;;;;;;6.80;5.40;;;;;;;29.90;71.05;100091.92;179681;1260;46082;-87
2023/07/10 17:46:30;;;;;;;10.30;4.90;;;;;;;29.73;72.03;100089.85;179912;1260;59366;-87
2023/07/10 17:50:34;;;;;;;5.00;4.30;;;;;;;29.54;73.24;100089.38;179556;1260;46014;-87
2023/07/10 17:54:39;;;;;;;6.00;5.40;;;;;;;29.33;73.35;100085.29;179627;1261;44012;-87
2023/07/10 17:58:43;;;;;;;;;;;;;;;29.14;72.78;100080.63;179796;1261;46096;-86
2023/07/10 18:02:47;;;;;;;7.80;6.90;;;;;;;29.01;72.86;100089.44;179398;1261;44072;-87
2023/07/10 18:06:52;;;;;;;9.10;7.10;;;;;;;28.97;72.89;100086.71;179937;1261;59559;-86
2023/07/10 18:11:10;;;;;;;8.90;6.90;;;;;;;28.89;73.33;100084.09;180063;1261;46114;-86
2023/07/10 18:15:17;;;;;;;10.10;7.80;;;;;;;28.74;73.00;100085.05;179832;1260;44724;-86
2023/07/10 18:19:21;;;;;;;9.70;7.90;;;;;;;28.59;73.24;100096.12;179672;1261;44603;-86
2023/07/10 18:23:28;;;;;;;7.80;6.80;;;;;;;28.39;74.54;100099.64;179871;1261;44526;-86
2023/07/10 18:27:31;;;;;;;8.20;6.60;;;;;;;28.17;75.93;100100.20;179402;1259;58306;-86
2023/07/10 18:31:35;;;;;;;9.40;8.00;;;;;;;27.86;78.28;100107.65;179265;1263;44525;-86
2023/07/10 18:35:41;;;;;;;10.00;8.30;;;;;;;27.70;78.45;100097.95;179538;1262;44714;-86
2023/07/10 18:39:45;;;;;;;8.60;7.80;;;;;;;27.64;76.97;100112.59;179225;1261;48548;-87
2023/07/10 18:43:51;;;;;;;8.80;7.90;;;;;;;27.67;76.35;100125.76;179552;1260;44551;-86
2023/07/10 18:47:55;;;;;;;9.60;7.60;;;;;;;27.64;75.79;100137.13;179910;1261;58458;-86